sensor_id;sensor_type;location;lat;lon;timestamp;pressure;altitude;pressure_sealevel;temperature;humidity
14767;BME280;7475;53.558;9.970;2022-11-23T00:00:25;99993.38;;;3.18;100.00
14767;BME280;7475;53.558;9.970;2022-11-23T00:02:56;99998.63;;;3.18;100.00
14767;BME280;7475;53.558;9.970;2022-11-23T00:05:22;99991.69;;;3.17;100.00
14767;BME280;7475;53.558;9.970;2022-11-23T00:07:48;99996.00;;;3.18;100.00
14767;BME280;7475;53.558;9.970;2022-11-23T00:10:14;100000.34;;;3.19;100.00
14767;BME280;7475;53.558;9.970;2022-11-23T00:12:39;99992.59;;;3.16;100.00
14767;BME280;7475;53.558;9.970;2022-11-23T00:15:05;100005.72;;;3.16;100.00
14767;BME280;7475;53.558;9.970;2022-11-23T00:17:31;100000.34;;;3.19;100.00
14767;BME280;7475;53.558;9.970;2022-11-23T00:19:56;100004.75;;;3.18;100.00
14767;BME280;7475;53.558;9.970;2022-11-23T00:22:22;100009.13;;;3.18;100.00
14767;BME280;7475;53.558;9.970;2022-11-23T00:24:47;100007.28;;;3.20;100.00
14767;BME280;7475;53.558;9.970;2022-11-23T00:27:12;100001.03;;;3.22;100.00
14767;BME280;7475;53.558;9.970;2022-11-23T00:29:38;99998.34;;;3.24;100.00
14767;BME280;7475;53.558;9.970;2022-11-23T00:32:03;100001.91;;;3.23;100.00
14767;BME280;7475;53.558;9.970;2022-11-23T00:34:29;99997.66;;;3.20;100.00
14767;BME280;7475;53.558;9.970;2022-11-23T00:36:54;100000.19;;;3.22;100.00
14767;BME280;7475;53.558;9.970;2022-11-23T00:39:19;100001.91;;;3.23;100.00
14767;BME280;7475;53.558;9.970;2022-11-23T00:41:44;99994.03;;;3.23;100.00
14767;BME280;7475;53.558;9.970;2022-11-23T00:44:10;99998.47;;;3.21;100.00
14767;BME280;7475;53.558;9.970;2022-11-23T00:46:35;99996.66;;;3.23;100.00
14767;BME280;7475;53.558;9.970;2022-11-23T00:49:00;99994.94;;;3.22;100.00
14767;BME280;7475;53.558;9.970;2022-11-23T00:51:28;99994.88;;;3.23;100.00
14767;BME280;7475;53.558;9.970;2022-11-23T00:53:54;99993.25;;;3.21;100.00
14767;BME280;7475;53.558;9.970;2022-11-23T00:56:20;99993.25;;;3.21;100.00
14767;BME280;7475;53.558;9.970;2022-11-23T00:58:53;99991.56;;;3.20;100.00
14767;BME280;7475;53.558;9.970;2022-11-23T01:01:20;99996.81;;;3.20;100.00
14767;BME280;7475;53.558;9.970;2022-11-23T01:03:52;100000.19;;;3.22;100.00
14767;BME280;7475;53.558;9.970;2022-11-23T01:06:26;100000.19;;;3.22;100.00
14767;BME280;7475;53.558;9.970;2022-11-23T01:08:57;99999.34;;;3.21;100.00
14767;BME280;7475;53.558;9.970;2022-11-23T01:11:24;99998.47;;;3.21;100.00
14767;BME280;7475;53.558;9.970;2022-11-23T01:13:50;99994.19;;;3.20;100.00
14767;BME280;7475;53.558;9.970;2022-11-23T01:16:19;99994.94;;;3.22;100.00
14767;BME280;7475;53.558;9.970;2022-11-23T01:18:45;99994.94;;;3.22;100.00
14767;BME280;7475;53.558;9.970;2022-11-23T01:21:11;99996.66;;;3.23;100.00
14767;BME280;7475;53.558;9.970;2022-11-23T01:23:36;99991.28;;;3.26;100.00
14767;BME280;7475;53.558;9.970;2022-11-23T01:26:09;99991.28;;;3.26;100.00
14767;BME280;7475;53.558;9.970;2022-11-23T01:28:36;99992.81;;;3.30;100.00
14767;BME280;7475;53.558;9.970;2022-11-23T01:31:14;99990.97;;;3.32;100.00
14767;BME280;7475;53.558;9.970;2022-11-23T01:33:39;99998.06;;;3.30;100.00
14767;BME280;7475;53.558;9.970;2022-11-23T01:36:12;100011.97;;;3.32;100.00
14767;BME280;7475;53.558;9.970;2022-11-23T01:38:39;100011.97;;;3.32;100.00
14767;BME280;7475;53.558;9.970;2022-11-23T01:41:06;100015.38;;;3.34;100.00
14767;BME280;7475;53.558;9.970;2022-11-23T01:43:32;100011.13;;;3.32;100.00
14767;BME280;7475;53.558;9.970;2022-11-23T01:45:59;100005.03;;;3.31;100.00
14767;BME280;7475;53.558;9.970;2022-11-23T01:50:52;100003.31;;;3.30;100.00
14767;BME280;7475;53.558;9.970;2022-11-23T01:53:18;100008.28;;;3.36;100.00
14767;BME280;7475;53.558;9.970;2022-11-23T01:55:47;100004.75;;;3.37;100.00
14767;BME280;7475;53.558;9.970;2022-11-23T01:58:17;100002.06;;;3.39;100.00
14767;BME280;7475;53.558;9.970;2022-11-23T02:00:44;99999.50;;;3.37;100.00
14767;BME280;7475;53.558;9.970;2022-11-23T02:03:10;100009.84;;;3.40;100.00
14767;BME280;7475;53.558;9.970;2022-11-23T02:05:47;100011.41;;;3.44;100.00
14767;BME280;7475;53.558;9.970;2022-11-23T02:08:15;100006.00;;;3.47;100.00
14767;BME280;7475;53.558;9.970;2022-11-23T02:10:41;100009.41;;;3.50;100.00
14767;BME280;7475;53.558;9.970;2022-11-23T02:13:09;100004.16;;;3.50;100.00
14767;BME280;7475;53.558;9.970;2022-11-23T02:15:36;100005.84;;;3.51;100.00
14767;BME280;7475;53.558;9.970;2022-11-23T02:18:04;100009.25;;;3.53;100.00
14767;BME280;7475;53.558;9.970;2022-11-23T02:20:30;100010.81;;;3.57;100.00
14767;BME280;7475;53.558;9.970;2022-11-23T02:23:05;100005.44;;;3.60;100.00
14767;BME280;7475;53.558;9.970;2022-11-23T02:25:47;100005.28;;;3.63;100.00
14767;BME280;7475;53.558;9.970;2022-11-23T02:28:18;99999.09;;;3.64;100.00
14767;BME280;7475;53.558;9.970;2022-11-23T02:30:47;99999.72;;;3.69;100.00
14767;BME280;7475;53.558;9.970;2022-11-23T02:33:14;99997.88;;;3.71;100.00
14767;BME280;7475;53.558;9.970;2022-11-23T02:35:54;99996.03;;;3.73;100.00
14767;BME280;7475;53.558;9.970;2022-11-23T02:38:20;100001.34;;;3.72;100.00
14767;BME280;7475;53.558;9.970;2022-11-23T02:40:47;99995.13;;;3.74;100.00
14767;BME280;7475;53.558;9.970;2022-11-23T02:43:13;99997.59;;;3.77;100.00
14767;BME280;7475;53.558;9.970;2022-11-23T02:45:57;99994.03;;;3.78;100.00
14767;BME280;7475;53.558;9.970;2022-11-23T02:48:24;100000.97;;;3.79;100.00
14767;BME280;7475;53.558;9.970;2022-11-23T02:50:49;100002.53;;;3.83;100.00
14767;BME280;7475;53.558;9.970;2022-11-23T02:53:15;99998.06;;;3.86;100.00
14767;BME280;7475;53.558;9.970;2022-11-23T02:55:40;99997.13;;;3.87;100.00
14767;BME280;7475;53.558;9.970;2022-11-23T02:58:06;100000.53;;;3.89;100.00
14767;BME280;7475;53.558;9.970;2022-11-23T03:00:31;99991.72;;;3.90;100.00
14767;BME280;7475;53.558;9.970;2022-11-23T03:02:59;99997.84;;;3.90;100.00
14767;BME280;7475;53.558;9.970;2022-11-23T03:05:25;99992.59;;;3.90;100.00
14767;BME280;7475;53.558;9.970;2022-11-23T03:07:50;99993.44;;;3.91;100.00
14767;BME280;7475;53.558;9.970;2022-11-23T03:10:17;99998.69;;;3.91;100.00
14767;BME280;7475;53.558;9.970;2022-11-23T03:12:42;99991.72;;;3.90;100.00
14767;BME280;7475;53.558;9.970;2022-11-23T03:15:08;99995.97;;;3.92;100.00
14767;BME280;7475;53.558;9.970;2022-11-23T03:17:34;99997.78;;;3.92;100.00
14767;BME280;7475;53.558;9.970;2022-11-23T03:19:59;99998.53;;;3.94;100.00
14767;BME280;7475;53.558;9.970;2022-11-23T03:22:24;99991.41;;;3.96;100.00
14767;BME280;7475;53.558;9.970;2022-11-23T03:24:50;100000.06;;;3.98;100.00
14767;BME280;7475;53.558;9.970;2022-11-23T03:27:15;99992.97;;;4.00;100.00
14767;BME280;7475;53.558;9.970;2022-11-23T03:29:40;100007.78;;;4.01;100.00
14767;BME280;7475;53.558;9.970;2022-11-23T03:32:06;100003.34;;;4.03;100.00
14767;BME280;7475;53.558;9.970;2022-11-23T03:34:31;100002.41;;;4.04;100.00
14767;BME280;7475;53.558;9.970;2022-11-23T03:36:56;100011.91;;;4.07;100.00
14767;BME280;7475;53.558;9.970;2022-11-23T03:39:22;100002.31;;;4.06;100.00
14767;BME280;7475;53.558;9.970;2022-11-23T03:41:47;100005.75;;;4.08;100.00
14767;BME280;7475;53.558;9.970;2022-11-23T03:44:12;100004.88;;;4.07;100.00
14767;BME280;7475;53.558;9.970;2022-11-23T03:46:38;100002.31;;;4.06;100.00
14767;BME280;7475;53.558;9.970;2022-11-23T03:49:03;100001.47;;;4.05;100.00
14767;BME280;7475;53.558;9.970;2022-11-23T03:51:28;100009.38;;;4.05;100.00
14767;BME280;7475;53.558;9.970;2022-11-23T03:53:54;100001.47;;;4.05;100.00
14767;BME280;7475;53.558;9.970;2022-11-23T03:56:19;99996.06;;;4.08;100.00
14767;BME280;7475;53.558;9.970;2022-11-23T03:58:44;100001.94;;;4.13;100.00
14767;BME280;7475;53.558;9.970;2022-11-23T04:01:10;100002.72;;;4.15;100.00
14767;BME280;7475;53.558;9.970;2022-11-23T04:03:35;99993.91;;;4.16;100.00
14767;BME280;7475;53.558;9.970;2022-11-23T04:06:00;100005.97;;;4.21;100.00
14767;BME280;7475;53.558;9.970;2022-11-23T04:08:26;100003.25;;;4.22;100.00
14767;BME280;7475;53.558;9.970;2022-11-23T04:10:55;99997.16;;;4.22;100.00
14767;BME280;7475;53.558;9.970;2022-11-23T04:13:20;100002.34;;;4.23;100.00
14767;BME280;7475;53.558;9.970;2022-11-23T04:15:46;99997.91;;;4.24;100.00
14767;BME280;7475;53.558;9.970;2022-11-23T04:18:11;99989.13;;;4.25;100.00
14767;BME280;7475;53.558;9.970;2022-11-23T04:20:36;99992.44;;;4.28;100.00
14767;BME280;7475;53.558;9.970;2022-11-23T04:23:02;100002.88;;;4.30;100.00
14767;BME280;7475;53.558;9.970;2022-11-23T04:25:27;100000.22;;;4.30;100.00
14767;BME280;7475;53.558;9.970;2022-11-23T04:27:52;99998.41;;;4.32;100.00
14767;BME280;7475;53.558;9.970;2022-11-23T04:30:18;100002.78;;;4.31;100.00
14767;BME280;7475;53.558;9.970;2022-11-23T04:32:44;100010.75;;;4.30;100.00
14767;BME280;7475;53.558;9.970;2022-11-23T04:35:10;99999.31;;;4.31;100.00
14767;BME280;7475;53.558;9.970;2022-11-23T04:37:35;100003.66;;;4.32;100.00
14767;BME280;7475;53.558;9.970;2022-11-23T04:40:01;99997.38;;;4.34;100.00
14767;BME280;7475;53.558;9.970;2022-11-23T04:42:26;100003.47;;;4.35;100.00
14767;BME280;7475;53.558;9.970;2022-11-23T04:44:51;100003.66;;;4.32;100.00
14767;BME280;7475;53.558;9.970;2022-11-23T04:47:16;100000.97;;;4.33;100.00
14767;BME280;7475;53.558;9.970;2022-11-23T04:49:42;100001.72;;;4.35;100.00
14767;BME280;7475;53.558;9.970;2022-11-23T04:52:07;100006.91;;;4.37;100.00
14767;BME280;7475;53.558;9.970;2022-11-23T04:54:32;100003.31;;;4.38;100.00
14767;BME280;7475;53.558;9.970;2022-11-23T04:56:58;100005.03;;;4.39;100.00
14767;BME280;7475;53.558;9.970;2022-11-23T04:59:23;100005.72;;;4.43;100.00
14767;BME280;7475;53.558;9.970;2022-11-23T05:01:49;100004.13;;;4.40;100.00
14767;BME280;7475;53.558;9.970;2022-11-23T05:04:17;100004.13;;;4.40;100.00
14767;BME280;7475;53.558;9.970;2022-11-23T05:06:42;100005.03;;;4.39;100.00
14767;BME280;7475;53.558;9.970;2022-11-23T05:09:07;100000.47;;;4.43;100.00
14767;BME280;7475;53.558;9.970;2022-11-23T05:11:33;100002.09;;;4.45;100.00
14767;BME280;7475;53.558;9.970;2022-11-23T05:13:58;100004.56;;;4.48;100.00
14767;BME280;7475;53.558;9.970;2022-11-23T05:16:23;100007.13;;;4.50;100.00
14767;BME280;7475;53.558;9.970;2022-11-23T05:18:49;99999.16;;;4.51;100.00
14767;BME280;7475;53.558;9.970;2022-11-23T05:21:14;100002.84;;;4.47;100.00
14767;BME280;7475;53.558;9.970;2022-11-23T05:23:39;99999.31;;;4.48;100.00
14767;BME280;7475;53.558;9.970;2022-11-23T05:26:05;99997.44;;;4.50;100.00
14767;BME280;7475;53.558;9.970;2022-11-23T05:28:30;99993.75;;;4.54;100.00
14767;BME280;7475;53.558;9.970;2022-11-23T05:30:55;100000.69;;;4.55;100.00
14767;BME280;7475;53.558;9.970;2022-11-23T05:33:20;100002.38;;;4.56;100.00
14767;BME280;7475;53.558;9.970;2022-11-23T05:35:46;100005.78;;;4.59;100.00
14767;BME280;7475;53.558;9.970;2022-11-23T05:38:11;99997.13;;;4.56;100.00
14767;BME280;7475;53.558;9.970;2022-11-23T05:40:36;100003.31;;;4.55;100.00
14767;BME280;7475;53.558;9.970;2022-11-23T05:43:03;100000.53;;;4.59;100.00
14767;BME280;7475;53.558;9.970;2022-11-23T05:45:28;100011.19;;;4.55;100.00
14767;BME280;7475;53.558;9.970;2022-11-23T05:47:55;100015.63;;;4.55;100.00
14767;BME280;7475;53.558;9.970;2022-11-23T05:50:23;100005.34;;;4.50;100.00
14767;BME280;7475;53.558;9.970;2022-11-23T05:52:48;100006.25;;;4.49;100.00
14767;BME280;7475;53.558;9.970;2022-11-23T05:55:14;100002.69;;;4.50;100.00
14767;BME280;7475;53.558;9.970;2022-11-23T06:00:19;100001.94;;;4.48;100.00
14767;BME280;7475;53.558;9.970;2022-11-23T06:02:45;100014.78;;;4.54;100.00
14767;BME280;7475;53.558;9.970;2022-11-23T06:05:10;100000.53;;;4.59;100.00
14767;BME280;7475;53.558;9.970;2022-11-23T06:07:36;100004.09;;;4.58;100.00
14767;BME280;7475;53.558;9.970;2022-11-23T06:10:03;100000.69;;;4.55;100.00
14767;BME280;7475;53.558;9.970;2022-11-23T06:12:29;100005.09;;;4.55;100.00
14767;BME280;7475;53.558;9.970;2022-11-23T06:14:55;100005.03;;;4.56;100.00
14767;BME280;7475;53.558;9.970;2022-11-23T06:17:20;100009.53;;;4.54;100.00
14767;BME280;7475;53.558;9.970;2022-11-23T06:19:45;100007.81;;;4.53;100.00
14767;BME280;7475;53.558;9.970;2022-11-23T06:22:11;100003.38;;;4.54;100.00
14767;BME280;7475;53.558;9.970;2022-11-23T06:24:36;100013.06;;;4.53;100.00
14767;BME280;7475;53.558;9.970;2022-11-23T06:27:02;100016.63;;;4.52;100.00
14767;BME280;7475;53.558;9.970;2022-11-23T06:29:28;100012.22;;;4.53;100.00
14767;BME280;7475;53.558;9.970;2022-11-23T06:31:53;100021.88;;;4.52;100.00
14767;BME280;7475;53.558;9.970;2022-11-23T06:34:19;100018.31;;;4.53;100.00
14767;BME280;7475;53.558;9.970;2022-11-23T06:36:44;100021.72;;;4.55;100.00
14767;BME280;7475;53.558;9.970;2022-11-23T06:39:09;100025.31;;;4.54;100.00
14767;BME280;7475;53.558;9.970;2022-11-23T06:41:35;100035.81;;;4.54;100.00
14767;BME280;7475;53.558;9.970;2022-11-23T06:44:00;100033.94;;;4.56;100.00
14767;BME280;7475;53.558;9.970;2022-11-23T06:46:26;100030.25;;;4.61;100.00
14767;BME280;7475;53.558;9.970;2022-11-23T06:48:51;100034.25;;;4.68;100.00
14767;BME280;7475;53.558;9.970;2022-11-23T06:51:16;100029.75;;;4.70;100.00
14767;BME280;7475;53.558;9.970;2022-11-23T06:53:41;100036.78;;;4.69;100.00
14767;BME280;7475;53.558;9.970;2022-11-23T06:56:07;100038.25;;;4.75;100.00
14767;BME280;7475;53.558;9.970;2022-11-23T06:58:33;100046.63;;;4.83;100.00
14767;BME280;7475;53.558;9.970;2022-11-23T07:01:04;100035.94;;;4.86;100.00
14767;BME280;7475;53.558;9.970;2022-11-23T07:03:30;100035.75;;;4.89;100.00
14767;BME280;7475;53.558;9.970;2022-11-23T07:05:56;100037.13;;;4.97;100.00
14767;BME280;7475;53.558;9.970;2022-11-23T07:08:21;100040.53;;;4.99;100.00
14767;BME280;7475;53.558;9.970;2022-11-23T07:10:47;100049.38;;;4.98;100.00
14767;BME280;7475;53.558;9.970;2022-11-23T07:13:13;100056.41;;;4.97;100.00
14767;BME280;7475;53.558;9.970;2022-11-23T07:15:39;100049.53;;;4.95;100.00
14767;BME280;7475;53.558;9.970;2022-11-23T07:18:05;100054.78;;;4.95;100.00
14767;BME280;7475;53.558;9.970;2022-11-23T07:20:31;100049.38;;;4.98;100.00
14767;BME280;7475;53.558;9.970;2022-11-23T07:23:04;100044.88;;;5.00;100.00
14767;BME280;7475;53.558;9.970;2022-11-23T07:25:31;100044.78;;;5.01;100.00
14767;BME280;7475;53.558;9.970;2022-11-23T07:27:57;100045.63;;;5.02;100.00
14767;BME280;7475;53.558;9.970;2022-11-23T07:30:24;100049.03;;;5.04;100.00
14767;BME280;7475;53.558;9.970;2022-11-23T07:32:50;100059.56;;;5.04;100.00
14767;BME280;7475;53.558;9.970;2022-11-23T07:35:16;100050.72;;;5.05;100.00
14767;BME280;7475;53.558;9.970;2022-11-23T07:37:41;100052.28;;;5.09;100.00
14767;BME280;7475;53.558;9.970;2022-11-23T07:40:07;100064.50;;;5.10;100.00
14767;BME280;7475;53.558;9.970;2022-11-23T07:42:32;100060.19;;;5.09;100.00
14767;BME280;7475;53.558;9.970;2022-11-23T07:44:57;100056.59;;;5.10;100.00
14767;BME280;7475;53.558;9.970;2022-11-23T07:47:23;100058.22;;;5.13;100.00
14767;BME280;7475;53.558;9.970;2022-11-23T07:49:48;100060.63;;;5.17;100.00
14767;BME280;7475;53.558;9.970;2022-11-23T07:52:13;100065.72;;;5.20;100.00
14767;BME280;7475;53.558;9.970;2022-11-23T07:54:39;100063.84;;;5.22;100.00
14767;BME280;7475;53.558;9.970;2022-11-23T07:57:04;100058.59;;;5.22;100.00
14767;BME280;7475;53.558;9.970;2022-11-23T07:59:29;100061.81;;;5.27;100.00
14767;BME280;7475;53.558;9.970;2022-11-23T08:01:55;100063.38;;;5.32;100.00
14767;BME280;7475;53.558;9.970;2022-11-23T08:04:20;100072.03;;;5.34;100.00
14767;BME280;7475;53.558;9.970;2022-11-23T08:06:45;100069.31;;;5.35;100.00
14767;BME280;7475;53.558;9.970;2022-11-23T08:09:11;100070.94;;;5.38;100.00
14767;BME280;7475;53.558;9.970;2022-11-23T08:11:36;100075.09;;;5.42;100.00
14767;BME280;7475;53.558;9.970;2022-11-23T08:14:01;100075.69;;;5.47;100.00
14767;BME280;7475;53.558;9.970;2022-11-23T08:16:26;100079.69;;;5.54;100.00
14767;BME280;7475;53.558;9.970;2022-11-23T08:18:52;100066.94;;;5.62;100.00
14767;BME280;7475;53.558;9.970;2022-11-23T08:21:17;100077.91;;;5.71;100.00
14767;BME280;7475;53.558;9.970;2022-11-23T08:23:42;100073.22;;;5.76;100.00
14767;BME280;7475;53.558;9.970;2022-11-23T08:26:07;100066.28;;;5.75;100.00
14767;BME280;7475;53.558;9.970;2022-11-23T08:28:33;100078.34;;;5.79;100.00
14767;BME280;7475;53.558;9.970;2022-11-23T08:30:58;100079.09;;;5.81;100.00
14767;BME280;7475;53.558;9.970;2022-11-23T08:33:29;100080.81;;;5.82;100.00
14767;BME280;7475;53.558;9.970;2022-11-23T08:35:54;100079.88;;;5.83;100.00
14767;BME280;7475;53.558;9.970;2022-11-23T08:38:19;100076.44;;;5.81;100.00
14767;BME280;7475;53.558;9.970;2022-11-23T08:40:44;100085.16;;;5.83;100.00
14767;BME280;7475;53.558;9.970;2022-11-23T08:43:10;100078.75;;;5.87;100.00
14767;BME280;7475;53.558;9.970;2022-11-23T08:45:35;100070.69;;;5.90;100.00
14767;BME280;7475;53.558;9.970;2022-11-23T08:48:01;100080.75;;;5.99;100.00
14767;BME280;7475;53.558;9.970;2022-11-23T08:50:28;100078.34;;;6.11;100.00
14767;BME280;7475;53.558;9.970;2022-11-23T08:52:57;100083.28;;;6.17;100.00
14767;BME280;7475;53.558;9.970;2022-11-23T08:55:24;100080.13;;;6.26;100.00
14767;BME280;7475;53.558;9.970;2022-11-23T08:57:54;100088.44;;;6.34;100.00
14767;BME280;7475;53.558;9.970;2022-11-23T09:00:19;100088.09;;;6.41;100.00
14767;BME280;7475;53.558;9.970;2022-11-23T09:02:45;100090.34;;;6.47;100.00
14767;BME280;7475;53.558;9.970;2022-11-23T09:05:10;100082.06;;;6.53;100.00
14767;BME280;7475;53.558;9.970;2022-11-23T09:07:35;100094.91;;;6.59;100.00
14767;BME280;7475;53.558;9.970;2022-11-23T09:10:01;100084.00;;;6.65;100.00
14767;BME280;7475;53.558;9.970;2022-11-23T09:12:26;100088.56;;;6.78;100.00
14767;BME280;7475;53.558;9.970;2022-11-23T09:14:52;100080.28;;;6.84;100.00
14767;BME280;7475;53.558;9.970;2022-11-23T09:17:17;100090.25;;;6.93;100.00
14767;BME280;7475;53.558;9.970;2022-11-23T09:19:42;100087.25;;;6.99;100.00
14767;BME280;7475;53.558;9.970;2022-11-23T09:22:08;100092.16;;;7.05;100.00
14767;BME280;7475;53.558;9.970;2022-11-23T09:24:33;100087.63;;;7.07;100.00
14767;BME280;7475;53.558;9.970;2022-11-23T09:26:58;100091.97;;;7.08;100.00
14767;BME280;7475;53.558;9.970;2022-11-23T09:29:23;100098.75;;;7.13;100.00
14767;BME280;7475;53.558;9.970;2022-11-23T09:31:49;100088.00;;;7.16;100.00
14767;BME280;7475;53.558;9.970;2022-11-23T09:34:14;100102.75;;;7.20;100.00
14767;BME280;7475;53.558;9.970;2022-11-23T09:36:40;100094.63;;;7.23;100.00
14767;BME280;7475;53.558;9.970;2022-11-23T09:39:05;100098.69;;;7.28;100.00
14767;BME280;7475;53.558;9.970;2022-11-23T09:49:43;100106.88;;;7.53;100.00
14767;BME280;7475;53.558;9.970;2022-11-23T09:52:16;100101.59;;;7.53;100.00
14767;BME280;7475;53.558;9.970;2022-11-23T09:54:43;100102.47;;;7.53;100.00
14767;BME280;7475;53.558;9.970;2022-11-23T09:57:11;100111.97;;;7.56;100.00
14767;BME280;7475;53.558;9.970;2022-11-23T09:59:43;100111.78;;;7.59;100.00
14767;BME280;7475;53.558;9.970;2022-11-23T10:02:25;100105.94;;;7.68;100.00
14767;BME280;7475;53.558;9.970;2022-11-23T10:04:54;100111.84;;;7.72;100.00
14767;BME280;7475;53.558;9.970;2022-11-23T10:09:49;100107.63;;;7.69;100.00
14767;BME280;7475;53.558;9.970;2022-11-23T10:23:07;100111.41;;;7.65;100.00
14767;BME280;7475;53.558;9.970;2022-11-23T10:25:43;100117.03;;;7.73;100.00
14767;BME280;7475;53.558;9.970;2022-11-23T10:28:16;100110.25;;;7.83;100.00
14767;BME280;7475;53.558;9.970;2022-11-23T10:30:44;100112.38;;;7.91;100.00
14767;BME280;7475;53.558;9.970;2022-11-23T10:33:25;100109.44;;;7.96;100.00
14767;BME280;7475;53.558;9.970;2022-11-23T10:35:53;100107.56;;;7.98;100.00
14767;BME280;7475;53.558;9.970;2022-11-23T10:38:20;100107.16;;;8.04;100.00
14767;BME280;7475;53.558;9.970;2022-11-23T10:41:02;100111.66;;;8.16;100.00
14767;BME280;7475;53.558;9.970;2022-11-23T10:43:37;100105.78;;;8.26;100.00
14767;BME280;7475;53.558;9.970;2022-11-23T10:48:51;100103.28;;;8.37;100.00
14767;BME280;7475;53.558;9.970;2022-11-23T10:51:29;100111.84;;;8.41;100.00
14767;BME280;7475;53.558;9.970;2022-11-23T10:53:59;100111.75;;;8.42;100.00
14767;BME280;7475;53.558;9.970;2022-11-23T10:56:25;100112.81;;;8.39;100.00
14767;BME280;7475;53.558;9.970;2022-11-23T10:58:51;100112.16;;;8.36;100.00
14767;BME280;7475;53.558;9.970;2022-11-23T11:01:22;100107.06;;;8.33;100.00
14767;BME280;7475;53.558;9.970;2022-11-23T11:03:50;100114.44;;;8.28;100.00
14767;BME280;7475;53.558;9.970;2022-11-23T11:06:27;100111.91;;;8.26;100.00
14767;BME280;7475;53.558;9.970;2022-11-23T11:08:54;100120.81;;;8.25;100.00
14767;BME280;7475;53.558;9.970;2022-11-23T11:11:30;100111.06;;;8.26;100.00
14767;BME280;7475;53.558;9.970;2022-11-23T11:14:20;100107.69;;;8.24;100.00
14767;BME280;7475;53.558;9.970;2022-11-23T11:16:55;100113.81;;;8.24;100.00
14767;BME280;7475;53.558;9.970;2022-11-23T11:21:55;100111.25;;;8.23;100.00
14767;BME280;7475;53.558;9.970;2022-11-23T11:24:31;100112.41;;;8.18;100.00
14767;BME280;7475;53.558;9.970;2022-11-23T11:26:59;100108.28;;;8.14;100.00
14767;BME280;7475;53.558;9.970;2022-11-23T11:32:01;100108.81;;;8.19;100.00
14767;BME280;7475;53.558;9.970;2022-11-23T11:40:15;100112.53;;;8.44;100.00
14767;BME280;7475;53.558;9.970;2022-11-23T11:42:35;100108.94;;;8.45;100.00
14767;BME280;7475;53.558;9.970;2022-11-23T11:45:04;100114.97;;;8.47;100.00
14767;BME280;7475;53.558;9.970;2022-11-23T11:47:36;100104.19;;;8.50;100.00
14767;BME280;7475;53.558;9.970;2022-11-23T11:50:14;100107.41;;;8.55;100.00
14767;BME280;7475;53.558;9.970;2022-11-23T11:52:44;100121.16;;;8.61;100.00
14767;BME280;7475;53.558;9.970;2022-11-23T11:55:18;100112.25;;;8.62;100.00
14767;BME280;7475;53.558;9.970;2022-11-23T11:57:51;100112.44;;;8.59;100.00
14767;BME280;7475;53.558;9.970;2022-11-23T12:00:19;100115.66;;;8.64;100.00
14767;BME280;7475;53.558;9.970;2022-11-23T12:02:56;100107.19;;;8.71;100.00
14767;BME280;7475;53.558;9.970;2022-11-23T12:05:31;100104.03;;;8.79;100.00
14767;BME280;7475;53.558;9.970;2022-11-23T12:10:51;100108.28;;;8.95;100.00
14767;BME280;7475;53.558;9.970;2022-11-23T12:13:22;100095.56;;;9.00;100.00
14767;BME280;7475;53.558;9.970;2022-11-23T12:19:00;100097.19;;;9.02;100.00
14767;BME280;7475;53.558;9.970;2022-11-23T12:26:59;100094.75;;;8.99;100.00
14767;BME280;7475;53.558;9.970;2022-11-23T12:35:20;100094.75;;;9.12;100.00
14767;BME280;7475;53.558;9.970;2022-11-23T12:38:11;100093.13;;;9.22;100.00
14767;BME280;7475;53.558;9.970;2022-11-23T12:41:07;100081.59;;;9.23;100.00
14767;BME280;7475;53.558;9.970;2022-11-23T12:49:09;100083.94;;;9.15;100.00
14767;BME280;7475;53.558;9.970;2022-11-23T12:51:59;100084.56;;;9.19;100.00
14767;BME280;7475;53.558;9.970;2022-11-23T13:00:17;100077.78;;;9.15;100.00
14767;BME280;7475;53.558;9.970;2022-11-23T13:13:48;100088.56;;;9.24;100.00
14767;BME280;7475;53.558;9.970;2022-11-23T13:21:40;100080.97;;;9.33;100.00
14767;BME280;7475;53.558;9.970;2022-11-23T13:24:29;100082.84;;;9.30;100.00
14767;BME280;7475;53.558;9.970;2022-11-23T13:32:43;100083.28;;;9.24;100.00
14767;BME280;7475;53.558;9.970;2022-11-23T13:40:23;100083.50;;;9.21;100.00
14767;BME280;7475;53.558;9.970;2022-11-23T13:42:50;100084.25;;;9.23;100.00
14767;BME280;7475;53.558;9.970;2022-11-23T13:45:23;100079.69;;;9.25;100.00
14767;BME280;7475;53.558;9.970;2022-11-23T13:50:39;100078.63;;;9.28;100.00
14767;BME280;7475;53.558;9.970;2022-11-23T13:53:25;100080.50;;;9.26;100.00
14767;BME280;7475;53.558;9.970;2022-11-23T13:55:52;100074.16;;;9.28;100.00
14767;BME280;7475;53.558;9.970;2022-11-23T14:00:49;100066.94;;;9.30;100.00
14767;BME280;7475;53.558;9.970;2022-11-23T14:03:47;100068.66;;;9.32;100.00
14767;BME280;7475;53.558;9.970;2022-11-23T14:11:58;100069.81;;;9.27;100.00
14767;BME280;7475;53.558;9.970;2022-11-23T14:14:30;100076.09;;;9.26;100.00
14767;BME280;7475;53.558;9.970;2022-11-23T14:26:26;100076.94;;;9.14;100.00
14767;BME280;7475;53.558;9.970;2022-11-23T14:34:57;100074.38;;;9.25;100.00
14767;BME280;7475;53.558;9.970;2022-11-23T14:43:35;100081.13;;;9.55;100.00
14767;BME280;7475;53.558;9.970;2022-11-23T14:46:02;100077.50;;;9.56;100.00
14767;BME280;7475;53.558;9.970;2022-11-23T14:48:33;100068.81;;;9.54;100.00
14767;BME280;7475;53.558;9.970;2022-11-23T14:51:02;100075.53;;;9.47;100.00
14767;BME280;7475;53.558;9.970;2022-11-23T14:53:37;100073.53;;;9.38;100.00
14767;BME280;7475;53.558;9.970;2022-11-23T14:56:36;100074.28;;;9.27;100.00
14767;BME280;7475;53.558;9.970;2022-11-23T14:59:06;100060.81;;;9.17;100.00
14767;BME280;7475;53.558;9.970;2022-11-23T15:01:33;100072.78;;;9.10;100.00
14767;BME280;7475;53.558;9.970;2022-11-23T15:04:09;100076.09;;;9.01;100.00
14767;BME280;7475;53.558;9.970;2022-11-23T15:06:38;100067.84;;;8.92;100.00
14767;BME280;7475;53.558;9.970;2022-11-23T15:14:43;100083.69;;;8.67;100.00
14767;BME280;7475;53.558;9.970;2022-11-23T15:17:14;100082.41;;;8.60;100.00
14767;BME280;7475;53.558;9.970;2022-11-23T15:19:40;100086.63;;;8.49;100.00